PWSweather.com
Personal Weather Stations
Station Observations
WESTON01
WestonSuperMareGB BS22 8RT

WestonSuperMareGB BS22 8RT

Lat: 51.351508, Lon: -2.933373

Elevation: 15

Station Type: Fine Offset WH1080

http://www.westonweather.co.uk

High Low Average
Temperature 70.3°F21.3°C 60.7°F15.9°C 64.5°F18.1°C
Dew Point 63.1°F17.3°C 56.8°F13.8°C 59.7°F15.4°C
Winds 18.6 mph 29.9 kmh 2.8 mph 4.5 kmh 9.0 mph WSW14.5 kmh WSW
Wind Gusts 31.2 mph50.2 kmh 4.2 mph6.8 kmh 14.0 mph22.5 kmh
Humidity 90% 75% 85%
Pressure 30.11 in1019.6 mb 30.02 in1016.6 mb -
Precipitation 0.00 in0.0 mm - -
Hour Temp Dew Point Humidity Winds Wind Gusts Pressure Precip Precip Rate Daily Precip Total
12:00 AM 62.3°F16.8°C 59.0°F15.0°C 89% 4.8 mph SW7.7 kmh SW 6.5 mph10.5 kmh 30.08 in1018.6 mb 0.00 in0.0 mm 0.00 in0.0 mm 0.00 in0.0 mm
12:05 AM 62.0°F16.7°C 58.7°F14.8°C 89% 6.3 mph SW10.1 kmh SW 8.6 mph13.8 kmh 30.08 in1018.6 mb 0.00 in0.0 mm 0.00 in0.0 mm 0.00 in0.0 mm
12:10 AM 62.0°F16.7°C 58.7°F14.8°C 89% 5.9 mph SW9.5 kmh SW 8.6 mph13.8 kmh 30.08 in1018.6 mb 0.00 in0.0 mm 0.00 in0.0 mm 0.00 in0.0 mm
12:15 AM 61.8°F16.6°C 58.5°F14.7°C 89% 5.0 mph SW8.0 kmh SW 8.0 mph12.9 kmh 30.08 in1018.6 mb 0.00 in0.0 mm 0.00 in0.0 mm 0.00 in0.0 mm
12:20 AM 61.6°F16.4°C 58.3°F14.6°C 89% 6.5 mph SSW10.5 kmh SSW 14.0 mph22.5 kmh 30.05 in1017.6 mb 0.00 in0.0 mm 0.00 in0.0 mm 0.00 in0.0 mm
12:25 AM 61.4°F16.3°C 58.2°F14.6°C 89% 7.5 mph SSW12.1 kmh SSW 14.0 mph22.5 kmh 30.05 in1017.6 mb 0.00 in0.0 mm 0.00 in0.0 mm 0.00 in0.0 mm
12:30 AM 61.3°F16.3°C 58.0°F14.4°C 89% 7.7 mph SSW12.4 kmh SSW 12.8 mph20.6 kmh 30.05 in1017.6 mb 0.00 in0.0 mm 0.00 in0.0 mm 0.00 in0.0 mm
12:35 AM 61.1°F16.2°C 57.8°F14.3°C 89% 7.5 mph SSW12.1 kmh SSW 12.8 mph20.6 kmh 30.05 in1017.6 mb 0.00 in0.0 mm 0.00 in0.0 mm 0.00 in0.0 mm
12:40 AM 61.1°F16.2°C 57.8°F14.3°C 89% 5.9 mph SW9.5 kmh SW 10.1 mph16.3 kmh 30.05 in1017.6 mb 0.00 in0.0 mm 0.00 in0.0 mm 0.00 in0.0 mm
12:45 AM 61.1°F16.2°C 57.8°F14.3°C 89% 4.6 mph SW7.4 kmh SW 5.4 mph8.7 kmh 30.05 in1017.6 mb 0.00 in0.0 mm 0.00 in0.0 mm 0.00 in0.0 mm
12:50 AM 60.9°F16.1°C 57.6°F14.2°C 89% 4.6 mph WSW7.4 kmh WSW 5.7 mph9.2 kmh 30.05 in1017.6 mb 0.00 in0.0 mm 0.00 in0.0 mm 0.00 in0.0 mm
12:55 AM 60.9°F16.1°C 57.6°F14.2°C 89% 5.3 mph WSW8.5 kmh WSW 7.4 mph11.9 kmh 30.05 in1017.6 mb 0.00 in0.0 mm 0.00 in0.0 mm 0.00 in0.0 mm
01:00 AM 60.9°F16.1°C 57.6°F14.2°C 89% 5.3 mph WSW8.5 kmh WSW 8.6 mph13.8 kmh 30.05 in1017.6 mb 0.00 in0.0 mm 0.00 in0.0 mm 0.00 in0.0 mm
01:05 AM 60.9°F16.1°C 57.6°F14.2°C 89% 5.9 mph SW9.5 kmh SW 9.8 mph15.8 kmh 30.05 in1017.6 mb 0.00 in0.0 mm 0.00 in0.0 mm 0.00 in0.0 mm
01:10 AM 60.9°F16.1°C 57.3°F14.1°C 88% 6.8 mph SW10.9 kmh SW 9.8 mph15.8 kmh 30.05 in1017.6 mb 0.00 in0.0 mm 0.00 in0.0 mm 0.00 in0.0 mm
01:15 AM 60.9°F16.1°C 57.3°F14.1°C 88% 6.7 mph SW10.8 kmh SW 9.5 mph15.3 kmh 30.05 in1017.6 mb 0.00 in0.0 mm 0.00 in0.0 mm 0.00 in0.0 mm
01:20 AM 60.9°F16.1°C 57.3°F14.1°C 88% 6.2 mph SW10.0 kmh SW 9.2 mph14.8 kmh 30.05 in1017.6 mb 0.00 in0.0 mm 0.00 in0.0 mm 0.00 in0.0 mm
01:25 AM 60.9°F16.1°C 57.3°F14.1°C 88% 5.7 mph SW9.2 kmh SW 8.9 mph14.3 kmh 30.05 in1017.6 mb 0.00 in0.0 mm 0.00 in0.0 mm 0.00 in0.0 mm
01:30 AM 60.9°F16.1°C 57.3°F14.1°C 88% 5.3 mph SW8.5 kmh SW 14.9 mph24.0 kmh 30.05 in1017.6 mb 0.00 in0.0 mm 0.00 in0.0 mm 0.00 in0.0 mm
01:35 AM 61.1°F16.2°C 57.5°F14.2°C 88% 4.7 mph SW7.6 kmh SW 14.9 mph24.0 kmh 30.05 in1017.6 mb 0.00 in0.0 mm 0.00 in0.0 mm 0.00 in0.0 mm
01:40 AM 61.1°F16.2°C 57.5°F14.2°C 88% 2.8 mph SSW4.5 kmh SSW 4.5 mph7.2 kmh 30.05 in1017.6 mb 0.00 in0.0 mm 0.00 in0.0 mm 0.00 in0.0 mm
01:45 AM 61.1°F16.2°C 57.5°F14.2°C 88% 3.8 mph SSW6.1 kmh SSW 8.6 mph13.8 kmh 30.05 in1017.6 mb 0.00 in0.0 mm 0.00 in0.0 mm 0.00 in0.0 mm
01:50 AM 61.1°F16.2°C 57.5°F14.2°C 88% 7.5 mph SW12.1 kmh SW 11.6 mph18.7 kmh 30.05 in1017.6 mb 0.00 in0.0 mm 0.00 in0.0 mm 0.00 in0.0 mm
01:55 AM 61.1°F16.2°C 57.2°F14.0°C 87% 7.4 mph SSW11.9 kmh SSW 11.6 mph18.7 kmh 30.05 in1017.6 mb 0.00 in0.0 mm 0.00 in0.0 mm 0.00 in0.0 mm
02:00 AM 61.1°F16.2°C 57.2°F14.0°C 87% 7.3 mph SW11.7 kmh SW 12.8 mph20.6 kmh 30.05 in1017.6 mb 0.00 in0.0 mm 0.00 in0.0 mm 0.00 in0.0 mm
02:05 AM 61.1°F16.2°C 57.2°F14.0°C 87% 7.0 mph SW11.3 kmh SW 12.8 mph20.6 kmh 30.05 in1017.6 mb 0.00 in0.0 mm 0.00 in0.0 mm 0.00 in0.0 mm
02:10 AM 60.9°F16.1°C 57.0°F13.9°C 87% 6.4 mph SSW10.3 kmh SSW 10.4 mph16.7 kmh 30.02 in1016.6 mb 0.00 in0.0 mm 0.00 in0.0 mm 0.00 in0.0 mm
02:15 AM 60.9°F16.1°C 57.0°F13.9°C 87% 8.3 mph SSW13.4 kmh SSW 13.7 mph22.0 kmh 30.02 in1016.6 mb 0.00 in0.0 mm 0.00 in0.0 mm 0.00 in0.0 mm
02:20 AM 60.9°F16.1°C 57.0°F13.9°C 87% 8.5 mph S13.7 kmh S 13.7 mph22.0 kmh 30.05 in1017.6 mb 0.00 in0.0 mm 0.00 in0.0 mm 0.00 in0.0 mm
02:25 AM 60.9°F16.1°C 57.0°F13.9°C 87% 7.5 mph S12.1 kmh S 14.0 mph22.5 kmh 30.05 in1017.6 mb 0.00 in0.0 mm 0.00 in0.0 mm 0.00 in0.0 mm
02:30 AM 60.9°F16.1°C 57.0°F13.9°C 87% 8.1 mph S13.0 kmh S 16.7 mph26.9 kmh 30.05 in1017.6 mb 0.00 in0.0 mm 0.00 in0.0 mm 0.00 in0.0 mm
02:35 AM 60.9°F16.1°C 57.0°F13.9°C 87% 7.9 mph S12.7 kmh S 16.7 mph26.9 kmh 30.05 in1017.6 mb 0.00 in0.0 mm 0.00 in0.0 mm 0.00 in0.0 mm
02:40 AM 60.9°F16.1°C 57.0°F13.9°C 87% 6.5 mph S10.5 kmh S 13.4 mph21.6 kmh 30.05 in1017.6 mb 0.00 in0.0 mm 0.00 in0.0 mm 0.00 in0.0 mm
02:45 AM 60.9°F16.1°C 57.0°F13.9°C 87% 6.1 mph S9.8 kmh S 9.8 mph15.8 kmh 30.05 in1017.6 mb 0.00 in0.0 mm 0.00 in0.0 mm 0.00 in0.0 mm
02:50 AM 60.7°F15.9°C 56.8°F13.8°C 87% 5.3 mph S8.5 kmh S 9.8 mph15.8 kmh 30.02 in1016.6 mb 0.00 in0.0 mm 0.00 in0.0 mm 0.00 in0.0 mm
02:55 AM 60.7°F15.9°C 56.8°F13.8°C 87% 3.9 mph S6.3 kmh S 5.4 mph8.7 kmh 30.02 in1016.6 mb 0.00 in0.0 mm 0.00 in0.0 mm 0.00 in0.0 mm
03:00 AM 60.7°F15.9°C 56.8°F13.8°C 87% 4.4 mph S7.1 kmh S 8.0 mph12.9 kmh 30.02 in1016.6 mb 0.00 in0.0 mm 0.00 in0.0 mm 0.00 in0.0 mm
03:05 AM 60.7°F15.9°C 56.8°F13.8°C 87% 5.3 mph SW8.5 kmh SW 8.0 mph12.9 kmh 30.02 in1016.6 mb 0.00 in0.0 mm 0.00 in0.0 mm 0.00 in0.0 mm
03:10 AM 60.7°F15.9°C 56.8°F13.8°C 87% 5.5 mph SW8.9 kmh SW 8.0 mph12.9 kmh 30.02 in1016.6 mb 0.00 in0.0 mm 0.00 in0.0 mm 0.00 in0.0 mm
03:15 AM 60.9°F16.1°C 57.0°F13.9°C 87% 7.1 mph SW11.4 kmh SW 10.1 mph16.3 kmh 30.02 in1016.6 mb 0.00 in0.0 mm 0.00 in0.0 mm 0.00 in0.0 mm
03:20 AM 61.1°F16.2°C 57.2°F14.0°C 87% 7.7 mph SSW12.4 kmh SSW 10.4 mph16.7 kmh 30.02 in1016.6 mb 0.00 in0.0 mm 0.00 in0.0 mm 0.00 in0.0 mm
03:25 AM 61.1°F16.2°C 57.2°F14.0°C 87% 7.9 mph SSW12.7 kmh SSW 10.7 mph17.2 kmh 30.02 in1016.6 mb 0.00 in0.0 mm 0.00 in0.0 mm 0.00 in0.0 mm
03:30 AM 61.1°F16.2°C 56.8°F13.8°C 86% 7.1 mph SW11.4 kmh SW 10.7 mph17.2 kmh 30.02 in1016.6 mb 0.00 in0.0 mm 0.00 in0.0 mm 0.00 in0.0 mm
03:35 AM 61.1°F16.2°C 57.2°F14.0°C 87% 5.8 mph SW9.3 kmh SW 8.3 mph13.4 kmh 30.02 in1016.6 mb 0.00 in0.0 mm 0.00 in0.0 mm 0.00 in0.0 mm
03:40 AM 61.1°F16.2°C 57.2°F14.0°C 87% 4.6 mph SW7.4 kmh SW 8.3 mph13.4 kmh 30.02 in1016.6 mb 0.00 in0.0 mm 0.00 in0.0 mm 0.00 in0.0 mm
03:45 AM 60.9°F16.1°C 57.0°F13.9°C 87% 4.0 mph SW6.4 kmh SW 5.7 mph9.2 kmh 30.02 in1016.6 mb 0.00 in0.0 mm 0.00 in0.0 mm 0.00 in0.0 mm
03:50 AM 60.9°F16.1°C 57.0°F13.9°C 87% 4.4 mph SW7.1 kmh SW 7.1 mph11.4 kmh 30.02 in1016.6 mb 0.00 in0.0 mm 0.00 in0.0 mm 0.00 in0.0 mm
03:55 AM 61.1°F16.2°C 57.2°F14.0°C 87% 4.1 mph SW6.6 kmh SW 7.4 mph11.9 kmh 30.02 in1016.6 mb 0.00 in0.0 mm 0.00 in0.0 mm 0.00 in0.0 mm
04:00 AM 61.1°F16.2°C 57.2°F14.0°C 87% 4.4 mph SW7.1 kmh SW 8.6 mph13.8 kmh 30.02 in1016.6 mb 0.00 in0.0 mm 0.00 in0.0 mm 0.00 in0.0 mm
04:05 AM 61.1°F16.2°C 57.2°F14.0°C 87% 5.8 mph SW9.3 kmh SW 9.2 mph14.8 kmh 30.02 in1016.6 mb 0.00 in0.0 mm 0.00 in0.0 mm 0.00 in0.0 mm
04:10 AM 61.3°F16.3°C 57.3°F14.1°C 87% 5.3 mph SW8.5 kmh SW 9.2 mph14.8 kmh 30.02 in1016.6 mb 0.00 in0.0 mm 0.00 in0.0 mm 0.00 in0.0 mm
04:15 AM 61.3°F16.3°C 57.3°F14.1°C 87% 5.1 mph SW8.2 kmh SW 8.0 mph12.9 kmh 30.02 in1016.6 mb 0.00 in0.0 mm 0.00 in0.0 mm 0.00 in0.0 mm
04:20 AM 61.4°F16.3°C 57.2°F14.0°C 86% 5.2 mph SW8.4 kmh SW 8.0 mph12.9 kmh 30.02 in1016.6 mb 0.00 in0.0 mm 0.00 in0.0 mm 0.00 in0.0 mm
04:25 AM 61.4°F16.3°C 57.2°F14.0°C 86% 5.0 mph SW8.0 kmh SW 7.7 mph12.4 kmh 30.02 in1016.6 mb 0.00 in0.0 mm 0.00 in0.0 mm 0.00 in0.0 mm
04:35 AM 61.4°F16.3°C 57.2°F14.0°C 86% 4.1 mph SW6.6 kmh SW 7.4 mph11.9 kmh 30.02 in1016.6 mb 0.00 in0.0 mm 0.00 in0.0 mm 0.00 in0.0 mm
04:40 AM 61.4°F16.3°C 57.2°F14.0°C 86% 4.9 mph SW7.9 kmh SW 7.7 mph12.4 kmh 30.02 in1016.6 mb 0.00 in0.0 mm 0.00 in0.0 mm 0.00 in0.0 mm
04:45 AM 61.4°F16.3°C 57.2°F14.0°C 86% 5.2 mph SSW8.4 kmh SSW 8.3 mph13.4 kmh 30.02 in1016.6 mb 0.00 in0.0 mm 0.00 in0.0 mm 0.00 in0.0 mm
04:50 AM 61.4°F16.3°C 57.2°F14.0°C 86% 5.9 mph SSW9.5 kmh SSW 8.3 mph13.4 kmh 30.02 in1016.6 mb 0.00 in0.0 mm 0.00 in0.0 mm 0.00 in0.0 mm
04:55 AM 61.4°F16.3°C 57.2°F14.0°C 86% 6.5 mph SW10.5 kmh SW 9.5 mph15.3 kmh 30.02 in1016.6 mb 0.00 in0.0 mm 0.00 in0.0 mm 0.00 in0.0 mm
05:00 AM 61.6°F16.4°C 57.4°F14.1°C 86% 7.3 mph SW11.7 kmh SW 10.4 mph16.7 kmh 30.02 in1016.6 mb 0.00 in0.0 mm 0.00 in0.0 mm 0.00 in0.0 mm
05:05 AM 61.8°F16.6°C 57.6°F14.2°C 86% 7.2 mph SW11.6 kmh SW 10.4 mph16.7 kmh 30.02 in1016.6 mb 0.00 in0.0 mm 0.00 in0.0 mm 0.00 in0.0 mm
05:10 AM 61.8°F16.6°C 57.6°F14.2°C 86% 4.9 mph SW7.9 kmh SW 10.1 mph16.3 kmh 30.02 in1016.6 mb 0.00 in0.0 mm 0.00 in0.0 mm 0.00 in0.0 mm
05:15 AM 61.8°F16.6°C 57.6°F14.2°C 86% 4.0 mph SSW6.4 kmh SSW 7.1 mph11.4 kmh 30.02 in1016.6 mb 0.00 in0.0 mm 0.00 in0.0 mm 0.00 in0.0 mm
05:20 AM 61.6°F16.4°C 57.4°F14.1°C 86% 4.0 mph SW6.4 kmh SW 7.4 mph11.9 kmh 30.02 in1016.6 mb 0.00 in0.0 mm 0.00 in0.0 mm 0.00 in0.0 mm
05:25 AM 61.6°F16.4°C 57.4°F14.1°C 86% 4.8 mph SW7.7 kmh SW 7.4 mph11.9 kmh 30.02 in1016.6 mb 0.00 in0.0 mm 0.00 in0.0 mm 0.00 in0.0 mm
05:30 AM 61.8°F16.6°C 57.6°F14.2°C 86% 4.6 mph SW7.4 kmh SW 6.2 mph10.0 kmh 30.02 in1016.6 mb 0.00 in0.0 mm 0.00 in0.0 mm 0.00 in0.0 mm
05:35 AM 61.8°F16.6°C 57.6°F14.2°C 86% 5.4 mph SSW8.7 kmh SSW 8.3 mph13.4 kmh 30.02 in1016.6 mb 0.00 in0.0 mm 0.00 in0.0 mm 0.00 in0.0 mm
05:40 AM 61.8°F16.6°C 57.6°F14.2°C 86% 6.1 mph S9.8 kmh S 8.3 mph13.4 kmh 30.02 in1016.6 mb 0.00 in0.0 mm 0.00 in0.0 mm 0.00 in0.0 mm
05:45 AM 61.8°F16.6°C 57.6°F14.2°C 86% 5.3 mph SSW8.5 kmh SSW 8.0 mph12.9 kmh 30.02 in1016.6 mb 0.00 in0.0 mm 0.00 in0.0 mm 0.00 in0.0 mm
05:50 AM 61.8°F16.6°C 57.9°F14.4°C 87% 5.0 mph SSW8.0 kmh SSW 8.0 mph12.9 kmh 30.02 in1016.6 mb 0.00 in0.0 mm 0.00 in0.0 mm 0.00 in0.0 mm
05:55 AM 62.0°F16.7°C 58.1°F14.5°C 87% 5.4 mph SSW8.7 kmh SSW 8.3 mph13.4 kmh 30.02 in1016.6 mb 0.00 in0.0 mm 0.00 in0.0 mm 0.00 in0.0 mm
06:00 AM 62.0°F16.7°C 58.1°F14.5°C 87% 5.2 mph SSW8.4 kmh SSW 8.3 mph13.4 kmh 30.02 in1016.6 mb 0.00 in0.0 mm 0.00 in0.0 mm 0.00 in0.0 mm
06:05 AM 62.0°F16.7°C 58.1°F14.5°C 87% 4.8 mph SSW7.7 kmh SSW 7.7 mph12.4 kmh 30.02 in1016.6 mb 0.00 in0.0 mm 0.00 in0.0 mm 0.00 in0.0 mm
06:10 AM 62.0°F16.7°C 58.1°F14.5°C 87% 5.3 mph SW8.5 kmh SW 7.7 mph12.4 kmh 30.02 in1016.6 mb 0.00 in0.0 mm 0.00 in0.0 mm 0.00 in0.0 mm
06:15 AM 62.0°F16.7°C 58.1°F14.5°C 87% 6.0 mph SW9.7 kmh SW 8.6 mph13.8 kmh 30.02 in1016.6 mb 0.00 in0.0 mm 0.00 in0.0 mm 0.00 in0.0 mm
06:20 AM 62.2°F16.8°C 58.2°F14.6°C 87% 6.8 mph SSW10.9 kmh SSW 8.6 mph13.8 kmh 30.02 in1016.6 mb 0.00 in0.0 mm 0.00 in0.0 mm 0.00 in0.0 mm
06:25 AM 62.2°F16.8°C 58.2°F14.6°C 87% 6.7 mph SSW10.8 kmh SSW 10.1 mph16.3 kmh 30.02 in1016.6 mb 0.00 in0.0 mm 0.00 in0.0 mm 0.00 in0.0 mm
06:30 AM 62.2°F16.8°C 58.2°F14.6°C 87% 6.2 mph SW10.0 kmh SW 10.1 mph16.3 kmh 30.02 in1016.6 mb 0.00 in0.0 mm 0.00 in0.0 mm 0.00 in0.0 mm
06:35 AM 62.3°F16.8°C 58.4°F14.7°C 87% 6.0 mph SSW9.7 kmh SSW 10.1 mph16.3 kmh 30.02 in1016.6 mb 0.00 in0.0 mm 0.00 in0.0 mm 0.00 in0.0 mm
06:40 AM 62.3°F16.8°C 58.4°F14.7°C 87% 6.0 mph SSW9.7 kmh SSW 13.4 mph21.6 kmh 30.02 in1016.6 mb 0.00 in0.0 mm 0.00 in0.0 mm 0.00 in0.0 mm
06:45 AM 62.3°F16.8°C 58.4°F14.7°C 87% 6.4 mph SW10.3 kmh SW 13.4 mph21.6 kmh 30.02 in1016.6 mb 0.00 in0.0 mm 0.00 in0.0 mm 0.00 in0.0 mm
06:50 AM 62.5°F16.9°C 58.6°F14.8°C 87% 6.4 mph SW10.3 kmh SW 13.4 mph21.6 kmh 30.02 in1016.6 mb 0.00 in0.0 mm 0.00 in0.0 mm 0.00 in0.0 mm
06:55 AM 62.7°F17.1°C 58.8°F14.9°C 87% 5.8 mph SSW9.3 kmh SSW 8.6 mph13.8 kmh 30.02 in1016.6 mb 0.00 in0.0 mm 0.00 in0.0 mm 0.00 in0.0 mm
07:00 AM 62.7°F17.1°C 58.8°F14.9°C 87% 5.2 mph SSW8.4 kmh SSW 8.0 mph12.9 kmh 30.02 in1016.6 mb 0.00 in0.0 mm 0.00 in0.0 mm 0.00 in0.0 mm
07:05 AM 62.9°F17.2°C 58.9°F14.9°C 87% 5.5 mph WSW8.9 kmh WSW 9.5 mph15.3 kmh 30.02 in1016.6 mb 0.00 in0.0 mm 0.00 in0.0 mm 0.00 in0.0 mm
07:10 AM 63.0°F17.2°C 59.1°F15.1°C 87% 5.7 mph SW9.2 kmh SW 9.5 mph15.3 kmh 30.02 in1016.6 mb 0.00 in0.0 mm 0.00 in0.0 mm 0.00 in0.0 mm
07:15 AM 63.2°F17.3°C 59.3°F15.2°C 87% 5.6 mph SW9.0 kmh SW 8.0 mph12.9 kmh 30.02 in1016.6 mb 0.00 in0.0 mm 0.00 in0.0 mm 0.00 in0.0 mm
07:20 AM 63.4°F17.4°C 59.5°F15.3°C 87% 6.8 mph WSW10.9 kmh WSW 10.7 mph17.2 kmh 30.02 in1016.6 mb 0.00 in0.0 mm 0.00 in0.0 mm 0.00 in0.0 mm
07:25 AM 63.6°F17.6°C 59.6°F15.3°C 87% 6.6 mph WSW10.6 kmh WSW 10.7 mph17.2 kmh 30.02 in1016.6 mb 0.00 in0.0 mm 0.00 in0.0 mm 0.00 in0.0 mm
07:30 AM 63.8°F17.7°C 59.8°F15.4°C 87% 6.2 mph SW10.0 kmh SW 8.6 mph13.8 kmh 30.02 in1016.6 mb 0.00 in0.0 mm 0.00 in0.0 mm 0.00 in0.0 mm
07:35 AM 64.0°F17.8°C 60.0°F15.6°C 87% 8.1 mph SW13.0 kmh SW 14.3 mph23.0 kmh 30.02 in1016.6 mb 0.00 in0.0 mm 0.00 in0.0 mm 0.00 in0.0 mm
07:40 AM 64.3°F17.9°C 60.4°F15.8°C 87% 8.6 mph SW13.8 kmh SW 14.3 mph23.0 kmh 30.02 in1016.6 mb 0.00 in0.0 mm 0.00 in0.0 mm 0.00 in0.0 mm
07:45 AM 64.5°F18.1°C 60.5°F15.8°C 87% 8.0 mph SW12.9 kmh SW 14.0 mph22.5 kmh 30.02 in1016.6 mb 0.00 in0.0 mm 0.00 in0.0 mm 0.00 in0.0 mm
07:50 AM 64.7°F18.2°C 60.7°F15.9°C 87% 7.4 mph WSW11.9 kmh WSW 11.3 mph18.2 kmh 30.02 in1016.6 mb 0.00 in0.0 mm 0.00 in0.0 mm 0.00 in0.0 mm
07:55 AM 64.8°F18.2°C 60.9°F16.1°C 87% 7.8 mph WSW12.6 kmh WSW 11.3 mph18.2 kmh 30.02 in1016.6 mb 0.00 in0.0 mm 0.00 in0.0 mm 0.00 in0.0 mm
08:00 AM 65.0°F18.3°C 61.1°F16.2°C 87% 6.9 mph SW11.1 kmh SW 10.4 mph16.7 kmh 30.02 in1016.6 mb 0.00 in0.0 mm 0.00 in0.0 mm 0.00 in0.0 mm
08:05 AM 65.2°F18.4°C 61.2°F16.2°C 87% 6.9 mph SW11.1 kmh SW 10.4 mph16.7 kmh 30.02 in1016.6 mb 0.00 in0.0 mm 0.00 in0.0 mm 0.00 in0.0 mm
08:10 AM 65.2°F18.4°C 60.9°F16.1°C 86% 8.0 mph WSW12.9 kmh WSW 10.4 mph16.7 kmh 30.02 in1016.6 mb 0.00 in0.0 mm 0.00 in0.0 mm 0.00 in0.0 mm
08:15 AM 65.4°F18.6°C 61.4°F16.3°C 87% 9.7 mph WSW15.6 kmh WSW 14.3 mph23.0 kmh 30.02 in1016.6 mb 0.00 in0.0 mm 0.00 in0.0 mm 0.00 in0.0 mm
08:20 AM 65.4°F18.6°C 61.4°F16.3°C 87% 12.1 mph WSW19.5 kmh WSW 17.9 mph28.8 kmh 30.02 in1016.6 mb 0.00 in0.0 mm 0.00 in0.0 mm 0.00 in0.0 mm
08:25 AM 65.6°F18.7°C 61.6°F16.4°C 87% 12.6 mph WSW20.3 kmh WSW 17.9 mph28.8 kmh 30.02 in1016.6 mb 0.00 in0.0 mm 0.00 in0.0 mm 0.00 in0.0 mm
08:30 AM 65.6°F18.7°C 61.6°F16.4°C 87% 11.6 mph WSW18.7 kmh WSW 16.4 mph26.4 kmh 30.02 in1016.6 mb 0.00 in0.0 mm 0.00 in0.0 mm 0.00 in0.0 mm
08:35 AM 65.6°F18.7°C 61.6°F16.4°C 87% 12.1 mph WSW19.5 kmh WSW 16.7 mph26.9 kmh 30.02 in1016.6 mb 0.00 in0.0 mm 0.00 in0.0 mm 0.00 in0.0 mm
08:40 AM 65.8°F18.8°C 61.8°F16.6°C 87% 11.2 mph W18.0 kmh W 16.7 mph26.9 kmh 30.02 in1016.6 mb 0.00 in0.0 mm 0.00 in0.0 mm 0.00 in0.0 mm
08:45 AM 65.8°F18.8°C 61.8°F16.6°C 87% 8.8 mph W14.2 kmh W 13.7 mph22.0 kmh 30.02 in1016.6 mb 0.00 in0.0 mm 0.00 in0.0 mm 0.00 in0.0 mm
08:50 AM 65.8°F18.8°C 61.8°F16.6°C 87% 10.2 mph W16.4 kmh W 17.0 mph27.4 kmh 30.02 in1016.6 mb 0.00 in0.0 mm 0.00 in0.0 mm 0.00 in0.0 mm
08:55 AM 65.8°F18.8°C 61.8°F16.6°C 87% 11.7 mph W18.8 kmh W 17.6 mph28.3 kmh 30.02 in1016.6 mb 0.00 in0.0 mm 0.00 in0.0 mm 0.00 in0.0 mm
09:00 AM 65.9°F18.8°C 61.9°F16.6°C 87% 13.3 mph W21.4 kmh W 18.7 mph30.1 kmh 30.02 in1016.6 mb 0.00 in0.0 mm 0.00 in0.0 mm 0.00 in0.0 mm
09:05 AM 65.9°F18.8°C 61.9°F16.6°C 87% 12.6 mph W20.3 kmh W 18.7 mph30.1 kmh 30.02 in1016.6 mb 0.00 in0.0 mm 0.00 in0.0 mm 0.00 in0.0 mm
09:10 AM 65.9°F18.8°C 61.9°F16.6°C 87% 12.0 mph W19.3 kmh W 19.6 mph31.5 kmh 30.02 in1016.6 mb 0.00 in0.0 mm 0.00 in0.0 mm 0.00 in0.0 mm
09:15 AM 66.1°F18.9°C 62.1°F16.7°C 87% 13.4 mph WSW21.6 kmh WSW 19.6 mph31.5 kmh 30.02 in1016.6 mb 0.00 in0.0 mm 0.00 in0.0 mm 0.00 in0.0 mm
09:20 AM 66.3°F19.1°C 62.3°F16.8°C 87% 12.7 mph W20.4 kmh W 16.7 mph26.9 kmh 30.02 in1016.6 mb 0.00 in0.0 mm 0.00 in0.0 mm 0.00 in0.0 mm
09:25 AM 66.3°F19.1°C 62.3°F16.8°C 87% 13.5 mph W21.7 kmh W 22.6 mph36.4 kmh 30.02 in1016.6 mb 0.00 in0.0 mm 0.00 in0.0 mm 0.00 in0.0 mm
09:30 AM 66.5°F19.2°C 62.5°F16.9°C 87% 13.7 mph WSW22.0 kmh WSW 22.6 mph36.4 kmh 30.02 in1016.6 mb 0.00 in0.0 mm 0.00 in0.0 mm 0.00 in0.0 mm
09:35 AM 66.7°F19.3°C 62.3°F16.8°C 86% 13.3 mph W21.4 kmh W 19.6 mph31.5 kmh 30.02 in1016.6 mb 0.00 in0.0 mm 0.00 in0.0 mm 0.00 in0.0 mm
09:40 AM 66.7°F19.3°C 62.3°F16.8°C 86% 14.5 mph W23.3 kmh W 22.6 mph36.4 kmh 30.02 in1016.6 mb 0.00 in0.0 mm 0.00 in0.0 mm 0.00 in0.0 mm
09:45 AM 66.7°F19.3°C 62.3°F16.8°C 86% 18.4 mph W29.6 kmh W 26.2 mph42.2 kmh 30.02 in1016.6 mb 0.00 in0.0 mm 0.00 in0.0 mm 0.00 in0.0 mm
09:50 AM 66.7°F19.3°C 62.0°F16.7°C 85% 18.4 mph W29.6 kmh W 26.2 mph42.2 kmh 30.05 in1017.6 mb 0.00 in0.0 mm 0.00 in0.0 mm 0.00 in0.0 mm
09:55 AM 66.7°F19.3°C 62.0°F16.7°C 85% 15.1 mph W24.3 kmh W 23.2 mph37.3 kmh 30.05 in1017.6 mb 0.00 in0.0 mm 0.00 in0.0 mm 0.00 in0.0 mm
10:00 AM 66.7°F19.3°C 62.0°F16.7°C 85% 14.9 mph WSW24.0 kmh WSW 20.2 mph32.5 kmh 30.05 in1017.6 mb 0.00 in0.0 mm 0.00 in0.0 mm 0.00 in0.0 mm
10:05 AM 66.8°F19.3°C 61.8°F16.6°C 84% 12.8 mph WSW20.6 kmh WSW 20.2 mph32.5 kmh 30.02 in1016.6 mb 0.00 in0.0 mm 0.00 in0.0 mm 0.00 in0.0 mm
10:10 AM 66.8°F19.3°C 61.8°F16.6°C 84% 11.8 mph WSW19.0 kmh WSW 20.8 mph33.5 kmh 30.02 in1016.6 mb 0.00 in0.0 mm 0.00 in0.0 mm 0.00 in0.0 mm
10:15 AM 66.8°F19.3°C 61.8°F16.6°C 84% 15.9 mph WSW25.6 kmh WSW 20.8 mph33.5 kmh 30.02 in1016.6 mb 0.00 in0.0 mm 0.00 in0.0 mm 0.00 in0.0 mm
10:20 AM 66.8°F19.3°C 61.5°F16.4°C 83% 13.7 mph W22.0 kmh W 20.5 mph33.0 kmh 30.05 in1017.6 mb 0.00 in0.0 mm 0.00 in0.0 mm 0.00 in0.0 mm
10:25 AM 67.2°F19.6°C 62.2°F16.8°C 84% 11.5 mph W18.5 kmh W 20.5 mph33.0 kmh 30.05 in1017.6 mb 0.00 in0.0 mm 0.00 in0.0 mm 0.00 in0.0 mm
10:30 AM 67.2°F19.6°C 62.2°F16.8°C 84% 14.0 mph W22.5 kmh W 30.3 mph48.8 kmh 30.05 in1017.6 mb 0.00 in0.0 mm 0.00 in0.0 mm 0.00 in0.0 mm
10:35 AM 67.2°F19.6°C 61.9°F16.6°C 83% 16.3 mph W26.2 kmh W 30.3 mph48.8 kmh 30.02 in1016.6 mb 0.00 in0.0 mm 0.00 in0.0 mm 0.00 in0.0 mm
10:40 AM 67.4°F19.7°C 62.0°F16.7°C 83% 14.3 mph WNW23.0 kmh WNW 23.5 mph37.8 kmh 30.02 in1016.6 mb 0.00 in0.0 mm 0.00 in0.0 mm 0.00 in0.0 mm
10:45 AM 67.4°F19.7°C 62.0°F16.7°C 83% 13.6 mph WNW21.9 kmh WNW 20.2 mph32.5 kmh 30.02 in1016.6 mb 0.00 in0.0 mm 0.00 in0.0 mm 0.00 in0.0 mm
10:50 AM 67.2°F19.6°C 61.9°F16.6°C 83% 13.3 mph W21.4 kmh W 20.2 mph32.5 kmh 30.05 in1017.6 mb 0.00 in0.0 mm 0.00 in0.0 mm 0.00 in0.0 mm
10:55 AM 67.2°F19.6°C 61.5°F16.4°C 82% 14.3 mph W23.0 kmh W 24.7 mph39.8 kmh 30.05 in1017.6 mb 0.00 in0.0 mm 0.00 in0.0 mm 0.00 in0.0 mm
11:00 AM 67.0°F19.4°C 61.3°F16.3°C 82% 13.6 mph W21.9 kmh W 24.7 mph39.8 kmh 30.05 in1017.6 mb 0.00 in0.0 mm 0.00 in0.0 mm 0.00 in0.0 mm
11:05 AM 67.2°F19.6°C 61.5°F16.4°C 82% 11.5 mph WNW18.5 kmh WNW 24.7 mph39.8 kmh 30.05 in1017.6 mb 0.00 in0.0 mm 0.00 in0.0 mm 0.00 in0.0 mm
11:10 AM 67.2°F19.6°C 61.5°F16.4°C 82% 10.8 mph NW17.4 kmh NW 16.7 mph26.9 kmh 30.05 in1017.6 mb 0.00 in0.0 mm 0.00 in0.0 mm 0.00 in0.0 mm
11:15 AM 67.4°F19.7°C 61.7°F16.5°C 82% 13.8 mph WNW22.2 kmh WNW 19.3 mph31.1 kmh 30.05 in1017.6 mb 0.00 in0.0 mm 0.00 in0.0 mm 0.00 in0.0 mm
11:20 AM 67.6°F19.8°C 61.9°F16.6°C 82% 13.1 mph WNW21.1 kmh WNW 19.3 mph31.1 kmh 30.05 in1017.6 mb 0.00 in0.0 mm 0.00 in0.0 mm 0.00 in0.0 mm
11:25 AM 67.6°F19.8°C 61.5°F16.4°C 81% 13.6 mph W21.9 kmh W 31.2 mph50.2 kmh 30.05 in1017.6 mb 0.00 in0.0 mm 0.00 in0.0 mm 0.00 in0.0 mm
11:30 AM 67.6°F19.8°C 61.5°F16.4°C 81% 14.9 mph W24.0 kmh W 31.2 mph50.2 kmh 30.05 in1017.6 mb 0.00 in0.0 mm 0.00 in0.0 mm 0.00 in0.0 mm
11:35 AM 67.6°F19.8°C 61.5°F16.4°C 81% 14.1 mph WNW22.7 kmh WNW 22.9 mph36.9 kmh 30.05 in1017.6 mb 0.00 in0.0 mm 0.00 in0.0 mm 0.00 in0.0 mm
11:40 AM 67.6°F19.8°C 61.5°F16.4°C 81% 12.2 mph WNW19.6 kmh WNW 17.6 mph28.3 kmh 30.05 in1017.6 mb 0.00 in0.0 mm 0.00 in0.0 mm 0.00 in0.0 mm
11:45 AM 67.7°F19.8°C 61.7°F16.5°C 81% 13.1 mph W21.1 kmh W 22.6 mph36.4 kmh 30.05 in1017.6 mb 0.00 in0.0 mm 0.00 in0.0 mm 0.00 in0.0 mm
11:50 AM 67.9°F19.9°C 61.9°F16.6°C 81% 15.5 mph W24.9 kmh W 23.2 mph37.3 kmh 30.05 in1017.6 mb 0.00 in0.0 mm 0.00 in0.0 mm 0.00 in0.0 mm
11:55 AM 67.9°F19.9°C 61.9°F16.6°C 81% 13.5 mph W21.7 kmh W 23.2 mph37.3 kmh 30.05 in1017.6 mb 0.00 in0.0 mm 0.00 in0.0 mm 0.00 in0.0 mm
12:00 PM 68.1°F20.1°C 62.0°F16.7°C 81% 12.8 mph W20.6 kmh W 21.7 mph34.9 kmh 30.05 in1017.6 mb 0.00 in0.0 mm 0.00 in0.0 mm 0.00 in0.0 mm
12:05 PM 68.1°F20.1°C 61.7°F16.5°C 80% 16.4 mph W26.4 kmh W 26.2 mph42.2 kmh 30.05 in1017.6 mb 0.00 in0.0 mm 0.00 in0.0 mm 0.00 in0.0 mm
12:10 PM 68.6°F20.3°C 62.2°F16.8°C 80% 17.8 mph W28.6 kmh W 26.2 mph42.2 kmh 30.05 in1017.6 mb 0.00 in0.0 mm 0.00 in0.0 mm 0.00 in0.0 mm
12:15 PM 69.0°F20.6°C 62.2°F16.8°C 79% 18.6 mph W29.9 kmh W 26.2 mph42.2 kmh 30.05 in1017.6 mb 0.00 in0.0 mm 0.00 in0.0 mm 0.00 in0.0 mm
12:20 PM 69.2°F20.7°C 62.4°F16.9°C 79% 18.0 mph W29.0 kmh W 26.5 mph42.6 kmh 30.05 in1017.6 mb 0.00 in0.0 mm 0.00 in0.0 mm 0.00 in0.0 mm
12:25 PM 69.5°F20.8°C 62.7°F17.1°C 79% 17.4 mph W28.0 kmh W 26.5 mph42.6 kmh 30.05 in1017.6 mb 0.00 in0.0 mm 0.00 in0.0 mm 0.00 in0.0 mm
12:30 PM 69.7°F20.9°C 62.5°F16.9°C 78% 16.7 mph W26.9 kmh W 22.3 mph35.9 kmh 30.05 in1017.6 mb 0.00 in0.0 mm 0.00 in0.0 mm 0.00 in0.0 mm
12:35 PM 69.7°F20.9°C 62.5°F16.9°C 78% 16.2 mph W26.1 kmh W 22.3 mph35.9 kmh 30.05 in1017.6 mb 0.00 in0.0 mm 0.00 in0.0 mm 0.00 in0.0 mm
12:40 PM 70.1°F21.2°C 62.9°F17.2°C 78% 15.5 mph WNW24.9 kmh WNW 22.3 mph35.9 kmh 30.05 in1017.6 mb 0.00 in0.0 mm 0.00 in0.0 mm 0.00 in0.0 mm
12:45 PM 70.3°F21.3°C 63.1°F17.3°C 78% 13.5 mph WNW21.7 kmh WNW 17.0 mph27.4 kmh 30.05 in1017.6 mb 0.00 in0.0 mm 0.00 in0.0 mm 0.00 in0.0 mm
12:50 PM 70.3°F21.3°C 62.7°F17.1°C 77% 12.8 mph W20.6 kmh W 17.0 mph27.4 kmh 30.05 in1017.6 mb 0.00 in0.0 mm 0.00 in0.0 mm 0.00 in0.0 mm
12:55 PM 70.1°F21.2°C 62.5°F16.9°C 77% 10.0 mph WNW16.1 kmh WNW 17.0 mph27.4 kmh 30.05 in1017.6 mb 0.00 in0.0 mm 0.00 in0.0 mm 0.00 in0.0 mm
01:00 PM 69.7°F20.9°C 62.2°F16.8°C 77% 9.8 mph W15.8 kmh W 14.9 mph24.0 kmh 30.05 in1017.6 mb 0.00 in0.0 mm 0.00 in0.0 mm 0.00 in0.0 mm
01:05 PM 69.5°F20.8°C 62.0°F16.7°C 77% 12.0 mph W19.3 kmh W 16.1 mph25.9 kmh 30.05 in1017.6 mb 0.00 in0.0 mm 0.00 in0.0 mm 0.00 in0.0 mm
01:10 PM 69.5°F20.8°C 62.0°F16.7°C 77% 11.8 mph WNW19.0 kmh WNW 16.1 mph25.9 kmh 30.05 in1017.6 mb 0.00 in0.0 mm 0.00 in0.0 mm 0.00 in0.0 mm
01:15 PM 69.3°F20.7°C 61.8°F16.6°C 77% 12.8 mph W20.6 kmh W 25.9 mph41.7 kmh 30.05 in1017.6 mb 0.00 in0.0 mm 0.00 in0.0 mm 0.00 in0.0 mm
01:20 PM 69.5°F20.8°C 62.0°F16.7°C 77% 13.1 mph WNW21.1 kmh WNW 25.9 mph41.7 kmh 30.08 in1018.6 mb 0.00 in0.0 mm 0.00 in0.0 mm 0.00 in0.0 mm
01:25 PM 69.3°F20.7°C 61.8°F16.6°C 77% 12.9 mph WNW20.8 kmh WNW 18.4 mph29.6 kmh 30.08 in1018.6 mb 0.00 in0.0 mm 0.00 in0.0 mm 0.00 in0.0 mm
01:30 PM 69.3°F20.7°C 61.8°F16.6°C 77% 14.6 mph W23.5 kmh W 18.4 mph29.6 kmh 30.08 in1018.6 mb 0.00 in0.0 mm 0.00 in0.0 mm 0.00 in0.0 mm
01:35 PM 69.5°F20.8°C 62.0°F16.7°C 77% 14.8 mph WNW23.8 kmh WNW 22.3 mph35.9 kmh 30.05 in1017.6 mb 0.00 in0.0 mm 0.00 in0.0 mm 0.00 in0.0 mm
01:40 PM 69.7°F20.9°C 62.2°F16.8°C 77% 14.0 mph W22.5 kmh W 22.3 mph35.9 kmh 30.05 in1017.6 mb 0.00 in0.0 mm 0.00 in0.0 mm 0.00 in0.0 mm
01:45 PM 69.9°F21.1°C 62.3°F16.8°C 77% 14.9 mph WNW24.0 kmh WNW 22.3 mph35.9 kmh 30.05 in1017.6 mb 0.00 in0.0 mm 0.00 in0.0 mm 0.00 in0.0 mm
01:50 PM 69.7°F20.9°C 62.2°F16.8°C 77% 13.7 mph W22.0 kmh W 20.5 mph33.0 kmh 30.05 in1017.6 mb 0.00 in0.0 mm 0.00 in0.0 mm 0.00 in0.0 mm
01:55 PM 69.9°F21.1°C 62.3°F16.8°C 77% 10.9 mph W17.5 kmh W 16.7 mph26.9 kmh 30.05 in1017.6 mb 0.00 in0.0 mm 0.00 in0.0 mm 0.00 in0.0 mm
02:00 PM 69.9°F21.1°C 62.0°F16.7°C 76% 12.2 mph NW19.6 kmh NW 21.4 mph34.4 kmh 30.05 in1017.6 mb 0.00 in0.0 mm 0.00 in0.0 mm 0.00 in0.0 mm
02:05 PM 69.9°F21.1°C 62.0°F16.7°C 76% 13.5 mph NW21.7 kmh NW 21.4 mph34.4 kmh 30.05 in1017.6 mb 0.00 in0.0 mm 0.00 in0.0 mm 0.00 in0.0 mm
02:10 PM 69.9°F21.1°C 62.0°F16.7°C 76% 12.8 mph WNW20.6 kmh WNW 20.5 mph33.0 kmh 30.05 in1017.6 mb 0.00 in0.0 mm 0.00 in0.0 mm 0.00 in0.0 mm
02:15 PM 69.7°F20.9°C 61.8°F16.6°C 76% 14.6 mph WNW23.5 kmh WNW 21.1 mph34.0 kmh 30.05 in1017.6 mb 0.00 in0.0 mm 0.00 in0.0 mm 0.00 in0.0 mm
02:20 PM 69.7°F20.9°C 61.8°F16.6°C 76% 15.7 mph WNW25.3 kmh WNW 23.5 mph37.8 kmh 30.05 in1017.6 mb 0.00 in0.0 mm 0.00 in0.0 mm 0.00 in0.0 mm
02:25 PM 69.7°F20.9°C 61.8°F16.6°C 76% 16.2 mph W26.1 kmh W 23.5 mph37.8 kmh 30.05 in1017.6 mb 0.00 in0.0 mm 0.00 in0.0 mm 0.00 in0.0 mm
02:30 PM 69.9°F21.1°C 62.0°F16.7°C 76% 15.3 mph WNW24.6 kmh WNW 23.5 mph37.8 kmh 30.05 in1017.6 mb 0.00 in0.0 mm 0.00 in0.0 mm 0.00 in0.0 mm
02:35 PM 70.1°F21.2°C 62.2°F16.8°C 76% 15.3 mph NW24.6 kmh NW 22.6 mph36.4 kmh 30.08 in1018.6 mb 0.00 in0.0 mm 0.00 in0.0 mm 0.00 in0.0 mm
02:40 PM 69.9°F21.1°C 62.0°F16.7°C 76% 16.7 mph WNW26.9 kmh WNW 22.9 mph36.9 kmh 30.08 in1018.6 mb 0.00 in0.0 mm 0.00 in0.0 mm 0.00 in0.0 mm
02:45 PM 69.9°F21.1°C 62.0°F16.7°C 76% 14.4 mph NW23.2 kmh NW 22.9 mph36.9 kmh 30.08 in1018.6 mb 0.00 in0.0 mm 0.00 in0.0 mm 0.00 in0.0 mm
02:50 PM 70.3°F21.3°C 62.3°F16.8°C 76% 14.0 mph WNW22.5 kmh WNW 20.8 mph33.5 kmh 30.08 in1018.6 mb 0.00 in0.0 mm 0.00 in0.0 mm 0.00 in0.0 mm
02:55 PM 70.3°F21.3°C 62.0°F16.7°C 75% 14.9 mph W24.0 kmh W 20.8 mph33.5 kmh 30.08 in1018.6 mb 0.00 in0.0 mm 0.00 in0.0 mm 0.00 in0.0 mm
03:00 PM 70.1°F21.2°C 61.8°F16.6°C 75% 13.7 mph W22.0 kmh W 19.6 mph31.5 kmh 30.08 in1018.6 mb 0.00 in0.0 mm 0.00 in0.0 mm 0.00 in0.0 mm
03:05 PM 69.5°F20.8°C 61.6°F16.4°C 76% 13.7 mph W22.0 kmh W 19.3 mph31.1 kmh 30.08 in1018.6 mb 0.00 in0.0 mm 0.00 in0.0 mm 0.00 in0.0 mm
03:10 PM 69.2°F20.7°C 61.3°F16.3°C 76% 13.3 mph W21.4 kmh W 19.3 mph31.1 kmh 30.05 in1017.6 mb 0.00 in0.0 mm 0.00 in0.0 mm 0.00 in0.0 mm
03:15 PM 68.8°F20.4°C 60.9°F16.1°C 76% 11.3 mph W18.2 kmh W 17.0 mph27.4 kmh 30.05 in1017.6 mb 0.00 in0.0 mm 0.00 in0.0 mm 0.00 in0.0 mm
03:20 PM 68.3°F20.2°C 60.4°F15.8°C 76% 10.4 mph W16.7 kmh W 17.0 mph27.4 kmh 30.08 in1018.6 mb 0.00 in0.0 mm 0.00 in0.0 mm 0.00 in0.0 mm
03:25 PM 67.7°F19.8°C 60.3°F15.7°C 77% 8.5 mph W13.7 kmh W 11.6 mph18.7 kmh 30.08 in1018.6 mb 0.00 in0.0 mm 0.00 in0.0 mm 0.00 in0.0 mm
03:30 PM 67.6°F19.8°C 60.1°F15.6°C 77% 8.2 mph W13.2 kmh W 16.1 mph25.9 kmh 30.08 in1018.6 mb 0.00 in0.0 mm 0.00 in0.0 mm 0.00 in0.0 mm
03:35 PM 67.0°F19.4°C 59.9°F15.5°C 78% 9.2 mph W14.8 kmh W 16.1 mph25.9 kmh 30.08 in1018.6 mb 0.00 in0.0 mm 0.00 in0.0 mm 0.00 in0.0 mm
03:40 PM 67.0°F19.4°C 60.3°F15.7°C 79% 8.3 mph W13.4 kmh W 11.6 mph18.7 kmh 30.08 in1018.6 mb 0.00 in0.0 mm 0.00 in0.0 mm 0.00 in0.0 mm
03:45 PM 66.8°F19.3°C 60.1°F15.6°C 79% 8.3 mph WNW13.4 kmh WNW 13.1 mph21.1 kmh 30.08 in1018.6 mb 0.00 in0.0 mm 0.00 in0.0 mm 0.00 in0.0 mm
03:50 PM 66.8°F19.3°C 60.1°F15.6°C 79% 8.1 mph WNW13.0 kmh WNW 13.1 mph21.1 kmh 30.08 in1018.6 mb 0.00 in0.0 mm 0.00 in0.0 mm 0.00 in0.0 mm
03:55 PM 66.5°F19.2°C 60.1°F15.6°C 80% 7.8 mph WSW12.6 kmh WSW 11.3 mph18.2 kmh 30.08 in1018.6 mb 0.00 in0.0 mm 0.00 in0.0 mm 0.00 in0.0 mm
04:00 PM 66.3°F19.1°C 60.3°F15.7°C 81% 10.5 mph WSW16.9 kmh WSW 17.0 mph27.4 kmh 30.08 in1018.6 mb 0.00 in0.0 mm 0.00 in0.0 mm 0.00 in0.0 mm
04:05 PM 66.3°F19.1°C 60.3°F15.7°C 81% 10.9 mph W17.5 kmh W 17.0 mph27.4 kmh 30.08 in1018.6 mb 0.00 in0.0 mm 0.00 in0.0 mm 0.00 in0.0 mm
04:10 PM 66.3°F19.1°C 60.3°F15.7°C 81% 9.6 mph WNW15.4 kmh WNW 13.7 mph22.0 kmh 30.08 in1018.6 mb 0.00 in0.0 mm 0.00 in0.0 mm 0.00 in0.0 mm
04:15 PM 66.1°F18.9°C 60.1°F15.6°C 81% 9.8 mph W15.8 kmh W 16.7 mph26.9 kmh 30.08 in1018.6 mb 0.00 in0.0 mm 0.00 in0.0 mm 0.00 in0.0 mm
04:20 PM 66.1°F18.9°C 60.1°F15.6°C 81% 10.4 mph W16.7 kmh W 16.7 mph26.9 kmh 30.08 in1018.6 mb 0.00 in0.0 mm 0.00 in0.0 mm 0.00 in0.0 mm
04:25 PM 65.9°F18.8°C 59.9°F15.5°C 81% 11.0 mph W17.7 kmh W 16.7 mph26.9 kmh 30.08 in1018.6 mb 0.00 in0.0 mm 0.00 in0.0 mm 0.00 in0.0 mm
04:30 PM 65.9°F18.8°C 60.3°F15.7°C 82% 11.1 mph W17.9 kmh W 17.0 mph27.4 kmh 30.08 in1018.6 mb 0.00 in0.0 mm 0.00 in0.0 mm 0.00 in0.0 mm
04:35 PM 65.8°F18.8°C 60.1°F15.6°C 82% 10.8 mph W17.4 kmh W 17.0 mph27.4 kmh 30.08 in1018.6 mb 0.00 in0.0 mm 0.00 in0.0 mm 0.00 in0.0 mm
04:40 PM 65.6°F18.7°C 59.9°F15.5°C 82% 10.2 mph W16.4 kmh W 14.6 mph23.5 kmh 30.08 in1018.6 mb 0.00 in0.0 mm 0.00 in0.0 mm 0.00 in0.0 mm
04:45 PM 65.6°F18.7°C 59.9°F15.5°C 82% 8.7 mph W14.0 kmh W 14.6 mph23.5 kmh 30.08 in1018.6 mb 0.00 in0.0 mm 0.00 in0.0 mm 0.00 in0.0 mm
04:50 PM 65.4°F18.6°C 59.8°F15.4°C 82% 7.0 mph WNW11.3 kmh WNW 10.7 mph17.2 kmh 30.08 in1018.6 mb 0.00 in0.0 mm 0.00 in0.0 mm 0.00 in0.0 mm
04:55 PM 65.4°F18.6°C 59.8°F15.4°C 82% 7.2 mph W11.6 kmh W 12.5 mph20.1 kmh 30.08 in1018.6 mb 0.00 in0.0 mm 0.00 in0.0 mm 0.00 in0.0 mm
05:00 PM 65.4°F18.6°C 60.1°F15.6°C 83% 7.9 mph W12.7 kmh W 12.5 mph20.1 kmh 30.08 in1018.6 mb 0.00 in0.0 mm 0.00 in0.0 mm 0.00 in0.0 mm
05:05 PM 65.4°F18.6°C 60.1°F15.6°C 83% 8.8 mph W14.2 kmh W 12.5 mph20.1 kmh 30.08 in1018.6 mb 0.00 in0.0 mm 0.00 in0.0 mm 0.00 in0.0 mm
05:10 PM 65.2°F18.4°C 59.9°F15.5°C 83% 8.5 mph WNW13.7 kmh WNW 14.6 mph23.5 kmh 30.08 in1018.6 mb 0.00 in0.0 mm 0.00 in0.0 mm 0.00 in0.0 mm
05:15 PM 65.2°F18.4°C 59.9°F15.5°C 83% 9.1 mph WNW14.6 kmh WNW 14.6 mph23.5 kmh 30.08 in1018.6 mb 0.00 in0.0 mm 0.00 in0.0 mm 0.00 in0.0 mm
05:20 PM 65.2°F18.4°C 59.9°F15.5°C 83% 7.8 mph WNW12.6 kmh WNW 11.3 mph18.2 kmh 30.08 in1018.6 mb 0.00 in0.0 mm 0.00 in0.0 mm 0.00 in0.0 mm
05:25 PM 65.0°F18.3°C 59.7°F15.4°C 83% 9.6 mph WNW15.4 kmh WNW 17.6 mph28.3 kmh 30.08 in1018.6 mb 0.00 in0.0 mm 0.00 in0.0 mm 0.00 in0.0 mm
05:30 PM 65.0°F18.3°C 59.7°F15.4°C 83% 11.3 mph WNW18.2 kmh WNW 17.6 mph28.3 kmh 30.08 in1018.6 mb 0.00 in0.0 mm 0.00 in0.0 mm 0.00 in0.0 mm
05:35 PM 64.8°F18.2°C 59.9°F15.5°C 84% 9.4 mph WNW15.1 kmh WNW 16.4 mph26.4 kmh 30.08 in1018.6 mb 0.00 in0.0 mm 0.00 in0.0 mm 0.00 in0.0 mm
05:40 PM 65.0°F18.3°C 59.7°F15.4°C 83% 7.7 mph WNW12.4 kmh WNW 11.3 mph18.2 kmh 30.08 in1018.6 mb 0.00 in0.0 mm 0.00 in0.0 mm 0.00 in0.0 mm
05:45 PM 64.8°F18.2°C 59.9°F15.5°C 84% 9.6 mph W15.4 kmh W 14.6 mph23.5 kmh 30.08 in1018.6 mb 0.00 in0.0 mm 0.00 in0.0 mm 0.00 in0.0 mm
05:50 PM 64.7°F18.2°C 59.7°F15.4°C 84% 10.5 mph WNW16.9 kmh WNW 17.3 mph27.8 kmh 30.08 in1018.6 mb 0.00 in0.0 mm 0.00 in0.0 mm 0.00 in0.0 mm
05:55 PM 64.7°F18.2°C 59.7°F15.4°C 84% 9.6 mph WNW15.4 kmh WNW 17.3 mph27.8 kmh 30.08 in1018.6 mb 0.00 in0.0 mm 0.00 in0.0 mm 0.00 in0.0 mm
06:00 PM 64.7°F18.2°C 59.7°F15.4°C 84% 8.1 mph WNW13.0 kmh WNW 10.4 mph16.7 kmh 30.08 in1018.6 mb 0.00 in0.0 mm 0.00 in0.0 mm 0.00 in0.0 mm
06:05 PM 64.5°F18.1°C 59.5°F15.3°C 84% 7.7 mph NW12.4 kmh NW 10.4 mph16.7 kmh 30.08 in1018.6 mb 0.00 in0.0 mm 0.00 in0.0 mm 0.00 in0.0 mm
06:10 PM 64.5°F18.1°C 59.5°F15.3°C 84% 9.0 mph WNW14.5 kmh WNW 14.0 mph22.5 kmh 30.08 in1018.6 mb 0.00 in0.0 mm 0.00 in0.0 mm 0.00 in0.0 mm
06:15 PM 64.5°F18.1°C 59.9°F15.5°C 85% 9.2 mph WNW14.8 kmh WNW 14.0 mph22.5 kmh 30.08 in1018.6 mb 0.00 in0.0 mm 0.00 in0.0 mm 0.00 in0.0 mm
06:20 PM 64.3°F17.9°C 59.7°F15.4°C 85% 7.7 mph W12.4 kmh W 11.3 mph18.2 kmh 30.08 in1018.6 mb 0.00 in0.0 mm 0.00 in0.0 mm 0.00 in0.0 mm
06:25 PM 64.3°F17.9°C 59.7°F15.4°C 85% 10.5 mph W16.9 kmh W 17.0 mph27.4 kmh 30.08 in1018.6 mb 0.00 in0.0 mm 0.00 in0.0 mm 0.00 in0.0 mm
06:30 PM 64.1°F17.8°C 59.5°F15.3°C 85% 11.1 mph W17.9 kmh W 17.0 mph27.4 kmh 30.08 in1018.6 mb 0.00 in0.0 mm 0.00 in0.0 mm 0.00 in0.0 mm
06:35 PM 64.1°F17.8°C 59.5°F15.3°C 85% 9.2 mph WNW14.8 kmh WNW 13.1 mph21.1 kmh 30.08 in1018.6 mb 0.00 in0.0 mm 0.00 in0.0 mm 0.00 in0.0 mm
06:40 PM 64.1°F17.8°C 59.5°F15.3°C 85% 9.2 mph WNW14.8 kmh WNW 13.1 mph21.1 kmh 30.08 in1018.6 mb 0.00 in0.0 mm 0.00 in0.0 mm 0.00 in0.0 mm
06:45 PM 64.0°F17.8°C 59.3°F15.2°C 85% 7.4 mph W11.9 kmh W 13.4 mph21.6 kmh 30.08 in1018.6 mb 0.00 in0.0 mm 0.00 in0.0 mm 0.00 in0.0 mm
06:50 PM 64.0°F17.8°C 59.3°F15.2°C 85% 7.0 mph W11.3 kmh W 13.4 mph21.6 kmh 30.08 in1018.6 mb 0.00 in0.0 mm 0.00 in0.0 mm 0.00 in0.0 mm
06:55 PM 64.0°F17.8°C 59.3°F15.2°C 85% 7.2 mph WNW11.6 kmh WNW 10.1 mph16.3 kmh 30.08 in1018.6 mb 0.00 in0.0 mm 0.00 in0.0 mm 0.00 in0.0 mm
07:00 PM 64.0°F17.8°C 59.3°F15.2°C 85% 7.5 mph NW12.1 kmh NW 10.1 mph16.3 kmh 30.08 in1018.6 mb 0.00 in0.0 mm 0.00 in0.0 mm 0.00 in0.0 mm
07:05 PM 63.8°F17.7°C 59.2°F15.1°C 85% 7.2 mph NW11.6 kmh NW 10.1 mph16.3 kmh 30.08 in1018.6 mb 0.00 in0.0 mm 0.00 in0.0 mm 0.00 in0.0 mm
07:10 PM 63.8°F17.7°C 59.2°F15.1°C 85% 6.5 mph NW10.5 kmh NW 12.8 mph20.6 kmh 30.08 in1018.6 mb 0.00 in0.0 mm 0.00 in0.0 mm 0.00 in0.0 mm
07:15 PM 63.8°F17.7°C 59.2°F15.1°C 85% 7.3 mph WNW11.7 kmh WNW 14.0 mph22.5 kmh 30.08 in1018.6 mb 0.00 in0.0 mm 0.00 in0.0 mm 0.00 in0.0 mm
07:20 PM 63.8°F17.7°C 59.5°F15.3°C 86% 7.1 mph NW11.4 kmh NW 14.0 mph22.5 kmh 30.08 in1018.6 mb 0.00 in0.0 mm 0.00 in0.0 mm 0.00 in0.0 mm
07:25 PM 63.8°F17.7°C 59.5°F15.3°C 86% 6.4 mph WNW10.3 kmh WNW 7.7 mph12.4 kmh 30.08 in1018.6 mb 0.00 in0.0 mm 0.00 in0.0 mm 0.00 in0.0 mm
07:30 PM 63.8°F17.7°C 59.5°F15.3°C 86% 6.4 mph WNW10.3 kmh WNW 10.1 mph16.3 kmh 30.08 in1018.6 mb 0.00 in0.0 mm 0.00 in0.0 mm 0.00 in0.0 mm
07:35 PM 63.8°F17.7°C 59.5°F15.3°C 86% 6.9 mph NW11.1 kmh NW 10.1 mph16.3 kmh 30.08 in1018.6 mb 0.00 in0.0 mm 0.00 in0.0 mm 0.00 in0.0 mm
07:40 PM 63.8°F17.7°C 59.5°F15.3°C 86% 8.0 mph NW12.9 kmh NW 14.3 mph23.0 kmh 30.08 in1018.6 mb 0.00 in0.0 mm 0.00 in0.0 mm 0.00 in0.0 mm
07:45 PM 63.6°F17.6°C 59.3°F15.2°C 86% 7.7 mph WNW12.4 kmh WNW 14.3 mph23.0 kmh 30.08 in1018.6 mb 0.00 in0.0 mm 0.00 in0.0 mm 0.00 in0.0 mm
07:50 PM 63.8°F17.7°C 59.5°F15.3°C 86% 7.4 mph WNW11.9 kmh WNW 12.5 mph20.1 kmh 30.08 in1018.6 mb 0.00 in0.0 mm 0.00 in0.0 mm 0.00 in0.0 mm
07:55 PM 63.8°F17.7°C 59.5°F15.3°C 86% 6.8 mph NW10.9 kmh NW 12.5 mph20.1 kmh 30.08 in1018.6 mb 0.00 in0.0 mm 0.00 in0.0 mm 0.00 in0.0 mm
08:00 PM 63.8°F17.7°C 59.5°F15.3°C 86% 7.7 mph NW12.4 kmh NW 14.3 mph23.0 kmh 30.08 in1018.6 mb 0.00 in0.0 mm 0.00 in0.0 mm 0.00 in0.0 mm
08:05 PM 63.8°F17.7°C 59.5°F15.3°C 86% 8.9 mph WNW14.3 kmh WNW 14.3 mph23.0 kmh 30.08 in1018.6 mb 0.00 in0.0 mm 0.00 in0.0 mm 0.00 in0.0 mm
08:10 PM 63.6°F17.6°C 59.3°F15.2°C 86% 8.2 mph W13.2 kmh W 11.3 mph18.2 kmh 30.08 in1018.6 mb 0.00 in0.0 mm 0.00 in0.0 mm 0.00 in0.0 mm
08:15 PM 63.6°F17.6°C 59.3°F15.2°C 86% 8.3 mph W13.4 kmh W 12.5 mph20.1 kmh 30.08 in1018.6 mb 0.00 in0.0 mm 0.00 in0.0 mm 0.00 in0.0 mm
08:20 PM 63.4°F17.4°C 59.1°F15.1°C 86% 8.2 mph W13.2 kmh W 12.5 mph20.1 kmh 30.08 in1018.6 mb 0.00 in0.0 mm 0.00 in0.0 mm 0.00 in0.0 mm
08:25 PM 63.2°F17.3°C 59.0°F15.0°C 86% 6.9 mph W11.1 kmh W 12.5 mph20.1 kmh 30.08 in1018.6 mb 0.00 in0.0 mm 0.00 in0.0 mm 0.00 in0.0 mm
08:30 PM 63.2°F17.3°C 59.0°F15.0°C 86% 5.9 mph WNW9.5 kmh WNW 9.8 mph15.8 kmh 30.08 in1018.6 mb 0.00 in0.0 mm 0.00 in0.0 mm 0.00 in0.0 mm
08:35 PM 63.0°F17.2°C 59.1°F15.1°C 87% 6.6 mph W10.6 kmh W 9.8 mph15.8 kmh 30.08 in1018.6 mb 0.00 in0.0 mm 0.00 in0.0 mm 0.00 in0.0 mm
08:40 PM 63.0°F17.2°C 59.1°F15.1°C 87% 7.3 mph W11.7 kmh W 11.6 mph18.7 kmh 30.08 in1018.6 mb 0.00 in0.0 mm 0.00 in0.0 mm 0.00 in0.0 mm
08:45 PM 63.2°F17.3°C 59.3°F15.2°C 87% 8.1 mph WNW13.0 kmh WNW 11.6 mph18.7 kmh 30.08 in1018.6 mb 0.00 in0.0 mm 0.00 in0.0 mm 0.00 in0.0 mm
08:50 PM 63.2°F17.3°C 59.3°F15.2°C 87% 9.3 mph WNW15.0 kmh WNW 13.4 mph21.6 kmh 30.08 in1018.6 mb 0.00 in0.0 mm 0.00 in0.0 mm 0.00 in0.0 mm
08:55 PM 63.2°F17.3°C 59.3°F15.2°C 87% 11.0 mph W17.7 kmh W 19.3 mph31.1 kmh 30.08 in1018.6 mb 0.00 in0.0 mm 0.00 in0.0 mm 0.00 in0.0 mm
09:00 PM 63.2°F17.3°C 59.3°F15.2°C 87% 10.7 mph W17.2 kmh W 19.3 mph31.1 kmh 30.08 in1018.6 mb 0.00 in0.0 mm 0.00 in0.0 mm 0.00 in0.0 mm
09:05 PM 63.2°F17.3°C 59.3°F15.2°C 87% 10.2 mph WNW16.4 kmh WNW 14.0 mph22.5 kmh 30.08 in1018.6 mb 0.00 in0.0 mm 0.00 in0.0 mm 0.00 in0.0 mm
09:10 PM 63.2°F17.3°C 59.3°F15.2°C 87% 8.9 mph WNW14.3 kmh WNW 14.0 mph22.5 kmh 30.08 in1018.6 mb 0.00 in0.0 mm 0.00 in0.0 mm 0.00 in0.0 mm
09:15 PM 63.2°F17.3°C 59.3°F15.2°C 87% 7.4 mph WNW11.9 kmh WNW 10.7 mph17.2 kmh 30.08 in1018.6 mb 0.00 in0.0 mm 0.00 in0.0 mm 0.00 in0.0 mm
09:20 PM 63.2°F17.3°C 59.3°F15.2°C 87% 7.3 mph WNW11.7 kmh WNW 10.7 mph17.2 kmh 30.11 in1019.6 mb 0.00 in0.0 mm 0.00 in0.0 mm 0.00 in0.0 mm
09:25 PM 63.2°F17.3°C 59.3°F15.2°C 87% 6.4 mph NW10.3 kmh NW 9.8 mph15.8 kmh 30.11 in1019.6 mb 0.00 in0.0 mm 0.00 in0.0 mm 0.00 in0.0 mm
09:30 PM 63.2°F17.3°C 59.3°F15.2°C 87% 6.3 mph NW10.1 kmh NW 9.8 mph15.8 kmh 30.11 in1019.6 mb 0.00 in0.0 mm 0.00 in0.0 mm 0.00 in0.0 mm
09:35 PM 63.2°F17.3°C 59.3°F15.2°C 87% 5.9 mph WNW9.5 kmh WNW 9.8 mph15.8 kmh 30.11 in1019.6 mb 0.00 in0.0 mm 0.00 in0.0 mm 0.00 in0.0 mm
09:40 PM 63.2°F17.3°C 59.3°F15.2°C 87% 4.0 mph W6.4 kmh W 5.7 mph9.2 kmh 30.11 in1019.6 mb 0.00 in0.0 mm 0.00 in0.0 mm 0.00 in0.0 mm
09:45 PM 63.2°F17.3°C 59.3°F15.2°C 87% 4.7 mph W7.6 kmh W 8.0 mph12.9 kmh 30.11 in1019.6 mb 0.00 in0.0 mm 0.00 in0.0 mm 0.00 in0.0 mm
09:50 PM 63.0°F17.2°C 59.4°F15.2°C 88% 6.0 mph W9.7 kmh W 8.0 mph12.9 kmh 30.08 in1018.6 mb 0.00 in0.0 mm 0.00 in0.0 mm 0.00 in0.0 mm
09:55 PM 63.0°F17.2°C 59.4°F15.2°C 88% 6.6 mph WSW10.6 kmh WSW 8.3 mph13.4 kmh 30.08 in1018.6 mb 0.00 in0.0 mm 0.00 in0.0 mm 0.00 in0.0 mm
10:00 PM 63.0°F17.2°C 59.4°F15.2°C 88% 6.9 mph WSW11.1 kmh WSW 8.9 mph14.3 kmh 30.08 in1018.6 mb 0.00 in0.0 mm 0.00 in0.0 mm 0.00 in0.0 mm
10:05 PM 63.0°F17.2°C 59.4°F15.2°C 88% 7.3 mph W11.7 kmh W 10.7 mph17.2 kmh 30.08 in1018.6 mb 0.00 in0.0 mm 0.00 in0.0 mm 0.00 in0.0 mm
10:10 PM 63.0°F17.2°C 59.4°F15.2°C 88% 7.0 mph W11.3 kmh W 10.7 mph17.2 kmh 30.08 in1018.6 mb 0.00 in0.0 mm 0.00 in0.0 mm 0.00 in0.0 mm
10:15 PM 62.9°F17.2°C 59.3°F15.2°C 88% 5.4 mph W8.7 kmh W 8.3 mph13.4 kmh 30.08 in1018.6 mb 0.00 in0.0 mm 0.00 in0.0 mm 0.00 in0.0 mm
10:20 PM 62.9°F17.2°C 59.3°F15.2°C 88% 5.1 mph W8.2 kmh W 8.6 mph13.8 kmh 30.11 in1019.6 mb 0.00 in0.0 mm 0.00 in0.0 mm 0.00 in0.0 mm
10:25 PM 62.9°F17.2°C 59.3°F15.2°C 88% 5.0 mph W8.0 kmh W 8.6 mph13.8 kmh 30.11 in1019.6 mb 0.00 in0.0 mm 0.00 in0.0 mm 0.00 in0.0 mm
10:30 PM 62.7°F17.1°C 59.1°F15.1°C 88% 5.2 mph WNW8.4 kmh WNW 9.5 mph15.3 kmh 30.11 in1019.6 mb 0.00 in0.0 mm 0.00 in0.0 mm 0.00 in0.0 mm
10:35 PM 62.7°F17.1°C 59.4°F15.2°C 89% 6.0 mph WNW9.7 kmh WNW 9.5 mph15.3 kmh 30.11 in1019.6 mb 0.00 in0.0 mm 0.00 in0.0 mm 0.00 in0.0 mm
10:40 PM 62.7°F17.1°C 59.4°F15.2°C 89% 5.5 mph WNW8.9 kmh WNW 7.7 mph12.4 kmh 30.11 in1019.6 mb 0.00 in0.0 mm 0.00 in0.0 mm 0.00 in0.0 mm
10:45 PM 62.7°F17.1°C 59.4°F15.2°C 89% 4.7 mph NW7.6 kmh NW 7.7 mph12.4 kmh 30.11 in1019.6 mb 0.00 in0.0 mm 0.00 in0.0 mm 0.00 in0.0 mm
10:50 PM 62.7°F17.1°C 59.4°F15.2°C 89% 4.9 mph WNW7.9 kmh WNW 7.4 mph11.9 kmh 30.11 in1019.6 mb 0.00 in0.0 mm 0.00 in0.0 mm 0.00 in0.0 mm
10:55 PM 62.7°F17.1°C 59.4°F15.2°C 89% 4.2 mph W6.8 kmh W 7.4 mph11.9 kmh 30.11 in1019.6 mb 0.00 in0.0 mm 0.00 in0.0 mm 0.00 in0.0 mm
11:00 PM 62.7°F17.1°C 59.4°F15.2°C 89% 4.9 mph W7.9 kmh W 8.0 mph12.9 kmh 30.11 in1019.6 mb 0.00 in0.0 mm 0.00 in0.0 mm 0.00 in0.0 mm
11:05 PM 62.7°F17.1°C 59.4°F15.2°C 89% 6.2 mph W10.0 kmh W 8.3 mph13.4 kmh 30.11 in1019.6 mb 0.00 in0.0 mm 0.00 in0.0 mm 0.00 in0.0 mm
11:10 PM 62.9°F17.2°C 59.6°F15.3°C 89% 5.6 mph W9.0 kmh W 8.6 mph13.8 kmh 30.11 in1019.6 mb 0.00 in0.0 mm 0.00 in0.0 mm 0.00 in0.0 mm
11:15 PM 62.9°F17.2°C 59.6°F15.3°C 89% 5.0 mph W8.0 kmh W 8.6 mph13.8 kmh 30.11 in1019.6 mb 0.00 in0.0 mm 0.00 in0.0 mm 0.00 in0.0 mm
11:20 PM 62.9°F17.2°C 59.6°F15.3°C 89% 5.2 mph W8.4 kmh W 8.6 mph13.8 kmh 30.11 in1019.6 mb 0.00 in0.0 mm 0.00 in0.0 mm 0.00 in0.0 mm
11:25 PM 62.9°F17.2°C 59.6°F15.3°C 89% 4.0 mph WNW6.4 kmh WNW 8.0 mph12.9 kmh 30.11 in1019.6 mb 0.00 in0.0 mm 0.00 in0.0 mm 0.00 in0.0 mm
11:30 PM 62.9°F17.2°C 59.6°F15.3°C 89% 3.9 mph WNW6.3 kmh WNW 6.5 mph10.5 kmh 30.11 in1019.6 mb 0.00 in0.0 mm 0.00 in0.0 mm 0.00 in0.0 mm
11:35 PM 62.9°F17.2°C 59.9°F15.5°C 90% 3.8 mph WNW6.1 kmh WNW 6.5 mph10.5 kmh 30.11 in1019.6 mb 0.00 in0.0 mm 0.00 in0.0 mm 0.00 in0.0 mm
11:40 PM 62.9°F17.2°C 59.9°F15.5°C 90% 3.1 mph WNW5.0 kmh WNW 5.7 mph9.2 kmh 30.11 in1019.6 mb 0.00 in0.0 mm 0.00 in0.0 mm 0.00 in0.0 mm
11:45 PM 63.0°F17.2°C 60.1°F15.6°C 90% 3.0 mph WNW4.8 kmh WNW 5.4 mph8.7 kmh 30.11 in1019.6 mb 0.00 in0.0 mm 0.00 in0.0 mm 0.00 in0.0 mm
11:50 PM 63.0°F17.2°C 60.1°F15.6°C 90% 3.0 mph NW4.8 kmh NW 5.4 mph8.7 kmh 30.08 in1018.6 mb 0.00 in0.0 mm 0.00 in0.0 mm 0.00 in0.0 mm
11:55 PM 63.0°F17.2°C 60.1°F15.6°C 90% 2.9 mph NW4.7 kmh NW 4.2 mph6.8 kmh 30.08 in1018.6 mb 0.00 in0.0 mm 0.00 in0.0 mm 0.00 in0.0 mm